createdAt,value
2023-05-27T00:01:56.634Z,5.15
2023-05-27T00:04:23.505Z,5.55
2023-05-27T00:06:50.622Z,4.90
2023-05-27T00:09:17.416Z,5.47
2023-05-27T00:11:44.119Z,5.43
2023-05-27T00:14:10.939Z,5.20
2023-05-27T00:16:37.771Z,5.50
2023-05-27T00:19:04.988Z,5.50
2023-05-27T00:21:31.702Z,5.05
2023-05-27T00:26:25.604Z,5.03
2023-05-27T00:28:53.896Z,5.40
2023-05-27T00:31:20.724Z,5.07
2023-05-27T00:33:47.466Z,5.03
2023-05-27T00:36:14.236Z,5.38
2023-05-27T00:38:41.112Z,5.20
2023-05-27T00:41:11.148Z,5.13
2023-05-27T00:43:37.932Z,5.30
2023-05-27T00:46:04.736Z,5.28
2023-05-27T00:48:32.096Z,5.00
2023-05-27T00:50:58.923Z,5.20
2023-05-27T00:53:25.940Z,5.35
2023-05-27T00:55:59.375Z,5.00
2023-05-27T00:58:26.266Z,5.07
2023-05-27T01:00:53.413Z,4.70
2023-05-27T01:03:21.340Z,5.00
2023-05-27T01:05:48.416Z,5.03
2023-05-27T01:08:35.330Z,4.93
2023-05-27T01:11:08.941Z,5.30
2023-05-27T01:13:49.026Z,4.90
2023-05-27T01:16:18.323Z,5.20
2023-05-27T01:18:50.355Z,5.45
2023-05-27T01:21:18.687Z,4.78
2023-05-27T01:23:49.412Z,4.85
2023-05-27T01:26:16.519Z,4.85
2023-05-27T01:28:43.841Z,5.07
2023-05-27T01:31:39.924Z,5.10
2023-05-27T01:34:13.940Z,5.03
2023-05-27T01:36:51.900Z,5.00
2023-05-27T01:39:18.932Z,5.40
2023-05-27T01:41:47.145Z,4.82
2023-05-27T01:44:18.259Z,5.07
2023-05-27T01:46:46.340Z,5.20
2023-05-27T01:49:13.875Z,4.88
2023-05-27T01:51:40.907Z,4.88
2023-05-27T01:54:07.735Z,5.20
2023-05-27T01:56:34.633Z,5.13
2023-05-27T01:59:01.439Z,4.97
2023-05-27T02:01:29.408Z,4.82
2023-05-27T02:03:56.817Z,5.07
2023-05-27T02:06:23.636Z,5.35
2023-05-27T02:08:50.704Z,4.72
2023-05-27T02:11:17.569Z,5.05
2023-05-27T02:13:44.481Z,4.82
2023-05-27T02:16:13.518Z,4.90
2023-05-27T02:18:41.825Z,4.95
2023-05-27T02:21:08.628Z,5.25
2023-05-27T02:23:35.546Z,4.88
2023-05-27T02:26:02.355Z,4.72
2023-05-27T02:28:29.441Z,4.65
2023-05-27T02:30:56.563Z,5.20
2023-05-27T02:33:23.342Z,4.97
2023-05-27T02:35:50.315Z,5.00
2023-05-27T02:38:17.373Z,5.28
2023-05-27T02:40:44.116Z,5.40
2023-05-27T02:43:11.881Z,4.88
2023-05-27T02:45:38.714Z,5.03
2023-05-27T02:48:06.855Z,4.82
2023-05-27T02:50:33.648Z,4.78
2023-05-27T02:53:00.631Z,4.80
2023-05-27T02:55:27.551Z,4.95
2023-05-27T02:57:54.280Z,4.78
2023-05-27T03:00:21.546Z,5.22
2023-05-27T03:02:49.290Z,4.60
2023-05-27T03:05:17.673Z,5.00
2023-05-27T03:07:44.642Z,4.78
2023-05-27T03:10:11.441Z,4.88
2023-05-27T03:12:38.254Z,4.80
2023-05-27T03:15:06.563Z,4.80
2023-05-27T03:17:37.776Z,4.93
2023-05-27T03:20:07.901Z,4.80
2023-05-27T03:22:38.280Z,5.00
2023-05-27T03:25:06.406Z,5.13
2023-05-27T03:27:33.440Z,4.78
2023-05-27T03:30:04.069Z,4.70
2023-05-27T03:32:31.174Z,4.80
2023-05-27T03:34:57.957Z,4.78
2023-05-27T03:37:24.995Z,4.50
2023-05-27T03:39:59.347Z,4.63
2023-05-27T03:42:34.209Z,4.38
2023-05-27T03:45:01.109Z,4.93
2023-05-27T03:47:28.972Z,4.78
2023-05-27T03:49:55.746Z,4.38
2023-05-27T03:52:22.565Z,4.57
2023-05-27T03:54:49.530Z,4.72
2023-05-27T03:57:17.088Z,4.63
2023-05-27T03:59:43.874Z,4.70
2023-05-27T04:02:11.042Z,4.82
2023-05-27T04:04:37.884Z,5.25
2023-05-27T04:07:05.063Z,4.55
2023-05-27T04:09:31.791Z,5.07
2023-05-27T04:11:59.650Z,4.53
2023-05-27T04:14:26.536Z,4.80
2023-05-27T04:16:53.534Z,4.55
2023-05-27T04:19:21.767Z,4.85
2023-05-27T04:21:49.776Z,4.68
2023-05-27T04:24:17.138Z,5.05
2023-05-27T04:26:46.853Z,4.53
2023-05-27T04:29:16.596Z,4.60
2023-05-27T04:31:45.802Z,4.10
2023-05-27T04:34:17.030Z,4.78
2023-05-27T04:36:44.913Z,4.55
2023-05-27T04:39:13.679Z,4.82
2023-05-27T04:41:44.007Z,4.35
2023-05-27T04:44:31.506Z,4.90
2023-05-27T04:47:00.144Z,4.95
2023-05-27T04:49:27.482Z,4.80
2023-05-27T04:51:55.680Z,4.32
2023-05-27T04:54:23.857Z,4.53
2023-05-27T04:56:53.100Z,4.93
2023-05-27T04:59:30.532Z,5.00
2023-05-27T05:02:11.285Z,4.22
2023-05-27T05:04:51.272Z,4.80
2023-05-27T05:07:20.462Z,4.70
2023-05-27T05:09:48.581Z,4.90
2023-05-27T05:12:21.463Z,4.85
2023-05-27T05:14:51.613Z,5.00
2023-05-27T05:17:19.175Z,4.22
2023-05-27T05:19:46.316Z,4.72
2023-05-27T05:22:14.793Z,4.50
2023-05-27T05:24:43.851Z,4.70
2023-05-27T05:27:10.655Z,5.65
2023-05-27T05:29:38.596Z,6.05
2023-05-27T05:32:05.919Z,4.93
2023-05-27T05:34:32.771Z,5.20
2023-05-27T05:37:00.067Z,4.78
2023-05-27T05:39:26.933Z,4.70
2023-05-27T05:41:55.220Z,4.45
2023-05-27T05:44:23.803Z,4.15
2023-05-27T05:46:53.086Z,4.65
2023-05-27T05:49:22.162Z,4.00
2023-05-27T05:51:50.253Z,4.20
2023-05-27T05:54:17.643Z,4.43
2023-05-27T05:56:49.320Z,4.65
2023-05-27T05:59:16.169Z,3.78
2023-05-27T06:01:42.912Z,4.13
2023-05-27T06:04:09.635Z,4.00
2023-05-27T06:06:41.316Z,4.05
2023-05-27T06:09:43.338Z,3.90
2023-05-27T06:12:18.281Z,3.85
2023-05-27T06:14:48.041Z,3.85
2023-05-27T06:17:23.425Z,4.25
2023-05-27T06:19:50.607Z,4.20
2023-05-27T06:22:17.808Z,3.60
2023-05-27T06:25:03.315Z,4.43
2023-05-27T06:27:42.468Z,3.80
2023-05-27T06:30:10.215Z,3.80
2023-05-27T06:32:41.116Z,3.80
2023-05-27T06:35:08.444Z,4.10
2023-05-27T06:37:35.700Z,3.63
2023-05-27T06:40:03.059Z,3.15
2023-05-27T06:42:29.937Z,3.58
2023-05-27T06:45:13.936Z,3.60
2023-05-27T06:47:41.936Z,3.60
2023-05-27T06:50:09.464Z,3.60
2023-05-27T06:52:38.020Z,3.50
2023-05-27T06:55:15.989Z,3.70
2023-05-27T06:58:01.148Z,3.78
2023-05-27T07:00:37.770Z,3.30
2023-05-27T07:03:24.004Z,3.60
2023-05-27T07:05:53.662Z,3.40
2023-05-27T07:08:26.396Z,3.40
2023-05-27T07:11:13.503Z,3.20
2023-05-27T07:13:40.434Z,3.28
2023-05-27T07:16:07.530Z,3.25
2023-05-27T07:18:34.503Z,2.97
2023-05-27T07:21:03.996Z,3.47
2023-05-27T07:23:30.830Z,3.40
2023-05-27T07:26:07.747Z,3.08
2023-05-27T07:28:34.570Z,3.22
2023-05-27T07:31:15.965Z,3.10
2023-05-27T07:33:49.379Z,3.10
2023-05-27T07:36:19.476Z,3.05
2023-05-27T07:38:46.383Z,3.17
2023-05-27T07:41:13.689Z,3.05
2023-05-27T07:43:41.062Z,2.88
2023-05-27T07:46:08.096Z,3.20
2023-05-27T07:48:37.150Z,2.90
2023-05-27T07:51:04.159Z,2.85
2023-05-27T07:53:35.348Z,3.00
2023-05-27T07:56:02.098Z,3.10
2023-05-27T07:58:28.863Z,3.08
2023-05-27T08:01:08.006Z,2.85
2023-05-27T08:03:34.956Z,3.08
2023-05-27T08:06:27.786Z,3.08
2023-05-27T08:09:14.132Z,3.05
2023-05-27T08:12:00.044Z,2.90
2023-05-27T08:14:32.986Z,3.33
2023-05-27T08:17:29.263Z,2.85
2023-05-27T08:20:19.071Z,3.20
2023-05-27T08:22:56.990Z,3.13
2023-05-27T08:25:42.597Z,3.20
2023-05-27T08:28:19.252Z,3.20
2023-05-27T08:30:53.872Z,3.30
2023-05-27T08:33:24.348Z,3.00
2023-05-27T08:35:51.280Z,3.30
2023-05-27T08:38:18.162Z,3.20
2023-05-27T08:40:45.544Z,2.83
2023-05-27T08:43:12.804Z,2.92
2023-05-27T08:45:45.446Z,3.40
2023-05-27T08:48:12.746Z,3.50
2023-05-27T08:50:41.642Z,3.13
2023-05-27T08:53:10.018Z,3.50
2023-05-27T08:55:40.257Z,3.30
2023-05-27T08:58:08.527Z,3.17
2023-05-27T09:00:40.079Z,3.25
2023-05-27T09:03:25.118Z,3.40
2023-05-27T09:05:56.412Z,3.10
2023-05-27T09:08:28.125Z,3.53
2023-05-27T09:13:30.609Z,3.30
2023-05-27T09:16:05.254Z,3.30
2023-05-27T09:18:36.782Z,3.75
2023-05-27T09:21:04.177Z,3.75
2023-05-27T09:23:30.927Z,3.40
2023-05-27T09:25:59.882Z,3.38
2023-05-27T09:28:27.367Z,3.13
2023-05-27T09:31:02.349Z,3.75
2023-05-27T09:33:33.455Z,3.33
2023-05-27T09:36:04.541Z,3.90
2023-05-27T09:38:35.633Z,3.30
2023-05-27T09:41:03.718Z,3.50
2023-05-27T09:43:31.372Z,3.40
2023-05-27T09:46:03.467Z,3.25
2023-05-27T09:48:34.937Z,3.38
2023-05-27T09:51:02.065Z,3.50
2023-05-27T09:53:29.519Z,3.80
2023-05-27T09:55:58.047Z,3.75
2023-05-27T09:58:25.879Z,3.65
2023-05-27T10:00:53.202Z,4.05
2023-05-27T10:03:25.139Z,3.42
2023-05-27T10:05:52.495Z,3.55
2023-05-27T10:10:50.866Z,3.53
2023-05-27T10:13:20.489Z,3.63
2023-05-27T10:15:50.557Z,4.18
2023-05-27T10:18:28.673Z,3.55
2023-05-27T10:20:57.261Z,3.90
2023-05-27T10:23:28.906Z,4.10
2023-05-27T10:26:09.922Z,4.03
2023-05-27T10:28:40.305Z,3.95
2023-05-27T10:31:16.886Z,3.70
2023-05-27T10:33:48.980Z,4.10
2023-05-27T10:36:29.836Z,3.78
2023-05-27T10:38:57.852Z,3.85
2023-05-27T10:41:24.741Z,3.65
2023-05-27T10:43:58.916Z,3.80
2023-05-27T10:46:26.948Z,3.83
2023-05-27T10:48:53.794Z,3.70
2023-05-27T10:51:20.568Z,3.72
2023-05-27T10:53:50.539Z,4.55
2023-05-27T10:56:27.025Z,3.95
2023-05-27T10:58:57.100Z,4.05
2023-05-27T11:01:29.456Z,4.85
2023-05-27T11:03:58.752Z,4.03
2023-05-27T11:06:25.840Z,4.10
2023-05-27T11:08:52.600Z,4.18
2023-05-27T11:11:19.445Z,4.05
2023-05-27T11:13:49.003Z,4.00
2023-05-27T11:16:17.266Z,4.35
2023-05-27T11:18:49.463Z,4.10
2023-05-27T11:21:17.726Z,3.92
2023-05-27T11:23:47.207Z,4.30
2023-05-27T11:26:24.512Z,4.63
2023-05-27T11:28:54.279Z,3.63
2023-05-27T11:31:23.491Z,4.00
2023-05-27T11:33:51.633Z,4.55
2023-05-27T11:36:19.062Z,4.72
2023-05-27T11:38:56.300Z,4.18
2023-05-27T11:41:28.359Z,4.10
2023-05-27T11:44:04.694Z,4.20
2023-05-27T11:46:44.127Z,3.90
2023-05-27T11:49:12.035Z,4.03
2023-05-27T11:51:43.072Z,4.00
2023-05-27T11:54:25.677Z,3.05
2023-05-27T11:56:53.919Z,3.83
2023-05-27T11:59:22.835Z,3.38
2023-05-27T12:01:50.468Z,3.60
2023-05-27T12:04:17.248Z,4.43
2023-05-27T12:06:45.737Z,3.33
2023-05-27T12:09:13.102Z,3.33
2023-05-27T12:11:40.031Z,3.33
2023-05-27T12:14:07.064Z,3.70
2023-05-27T12:16:34.001Z,3.65
2023-05-27T12:19:01.106Z,3.50
2023-05-27T12:21:28.042Z,3.65
2023-05-27T12:23:57.563Z,3.65
2023-05-27T12:26:25.374Z,3.33
2023-05-27T12:28:52.157Z,3.30
2023-05-27T12:31:20.114Z,3.72
2023-05-27T12:33:46.988Z,3.40
2023-05-27T12:36:13.841Z,3.45
2023-05-27T12:38:40.645Z,3.30
2023-05-27T12:41:07.863Z,3.67
2023-05-27T12:43:34.769Z,3.58
2023-05-27T12:46:01.507Z,3.90
2023-05-27T12:48:28.257Z,3.83
2023-05-27T12:50:55.005Z,3.58
2023-05-27T12:53:21.814Z,3.53
2023-05-27T12:55:48.745Z,3.72
2023-05-27T12:58:15.729Z,3.60
2023-05-27T13:00:42.837Z,3.78
2023-05-27T13:03:12.298Z,3.63
2023-05-27T13:05:39.533Z,3.22
2023-05-27T13:08:07.029Z,3.08
2023-05-27T13:10:33.992Z,3.47
2023-05-27T13:13:01.666Z,3.00
2023-05-27T13:15:28.949Z,3.00
2023-05-27T13:17:56.575Z,3.30
2023-05-27T13:20:25.061Z,3.08
2023-05-27T13:22:52.159Z,3.45
2023-05-27T13:25:19.112Z,3.38
2023-05-27T13:27:46.287Z,2.90
2023-05-27T13:30:15.276Z,3.00
2023-05-27T13:32:43.935Z,3.28
2023-05-27T13:35:15.092Z,3.30
2023-05-27T13:37:42.708Z,3.88
2023-05-27T13:40:10.703Z,3.50
2023-05-27T13:42:37.866Z,3.53
2023-05-27T13:45:05.293Z,3.40
2023-05-27T13:47:32.800Z,3.00
2023-05-27T13:49:59.702Z,3.03
2023-05-27T13:52:26.932Z,3.00
2023-05-27T13:54:53.773Z,3.22
2023-05-27T13:57:20.532Z,3.40
2023-05-27T13:59:47.478Z,3.30
2023-05-27T14:02:14.294Z,3.42
2023-05-27T14:04:41.024Z,3.13
2023-05-27T14:07:07.810Z,2.67
2023-05-27T14:09:34.692Z,3.05
2023-05-27T14:12:03.500Z,3.10
2023-05-27T14:14:30.384Z,3.72
2023-05-27T14:16:57.813Z,3.30
2023-05-27T14:19:24.613Z,3.25
2023-05-27T14:21:51.376Z,3.22
2023-05-27T14:24:18.142Z,3.10
2023-05-27T14:26:45.545Z,3.03
2023-05-27T14:29:12.597Z,3.13
2023-05-27T14:31:39.615Z,3.00
2023-05-27T14:34:06.855Z,2.88
2023-05-27T14:36:33.757Z,3.00
2023-05-27T14:39:04.241Z,2.92
2023-05-27T14:41:31.166Z,3.00
2023-05-27T14:43:58.339Z,2.92
2023-05-27T14:46:25.316Z,2.78
2023-05-27T14:48:52.121Z,2.78
2023-05-27T14:51:18.883Z,3.08
2023-05-27T14:53:45.746Z,2.92
2023-05-27T14:56:12.762Z,2.88
2023-05-27T14:58:40.440Z,2.97
2023-05-27T15:01:07.446Z,3.15
2023-05-27T15:03:34.444Z,3.00
2023-05-27T15:06:01.431Z,3.20
2023-05-27T15:08:28.210Z,2.72
2023-05-27T15:10:55.184Z,2.75
2023-05-27T15:13:22.178Z,2.88
2023-05-27T15:15:50.415Z,3.22
2023-05-27T15:18:17.495Z,3.08
2023-05-27T15:20:44.560Z,2.65
2023-05-27T15:23:11.536Z,3.00
2023-05-27T15:25:38.468Z,2.67
2023-05-27T15:28:05.257Z,2.78
2023-05-27T15:30:32.058Z,2.95
2023-05-27T15:32:58.887Z,2.70
2023-05-27T15:35:25.852Z,2.60
2023-05-27T15:37:52.746Z,2.58
2023-05-27T15:40:19.554Z,2.97
2023-05-27T15:42:46.476Z,2.63
2023-05-27T15:45:14.390Z,2.75
2023-05-27T15:47:41.602Z,2.63
2023-05-27T15:50:08.876Z,3.13
2023-05-27T15:52:35.762Z,2.80
2023-05-27T15:55:02.674Z,2.20
2023-05-27T15:57:29.443Z,2.50
2023-05-27T15:59:56.180Z,2.80
2023-05-27T16:02:22.964Z,2.40
2023-05-27T16:04:50.516Z,2.58
2023-05-27T16:07:17.404Z,3.13
2023-05-27T16:09:44.178Z,2.95
2023-05-27T16:12:13.739Z,2.83
2023-05-27T16:14:40.495Z,2.95
2023-05-27T16:17:07.570Z,2.50
2023-05-27T16:19:34.330Z,2.65
2023-05-27T16:22:01.080Z,2.25
2023-05-27T16:24:27.867Z,2.35
2023-05-27T16:26:54.642Z,2.72
2023-05-27T16:29:22.076Z,2.65
2023-05-27T16:31:48.913Z,2.80
2023-05-27T16:34:15.743Z,2.42
2023-05-27T16:36:42.653Z,2.58
2023-05-27T16:39:09.478Z,2.95
2023-05-27T16:41:36.255Z,2.50
2023-05-27T16:44:03.289Z,2.35
2023-05-27T16:46:30.238Z,2.50
2023-05-27T16:48:57.016Z,2.40
2023-05-27T16:51:23.776Z,2.50
2023-05-27T16:53:50.740Z,2.40
2023-05-27T16:56:17.580Z,2.35
2023-05-27T16:58:44.402Z,2.55
2023-05-27T17:01:11.411Z,2.45
2023-05-27T17:03:38.220Z,2.35
2023-05-27T17:06:04.990Z,2.28
2023-05-27T17:08:31.740Z,2.45
2023-05-27T17:10:58.645Z,2.50
2023-05-27T17:13:25.448Z,2.55
2023-05-27T17:15:52.918Z,2.30
2023-05-27T17:18:19.662Z,2.60
2023-05-27T17:20:46.649Z,2.45
2023-05-27T17:23:13.442Z,2.25
2023-05-27T17:25:40.346Z,2.30
2023-05-27T17:28:07.080Z,2.50
2023-05-27T17:30:36.781Z,2.28
2023-05-27T17:33:03.907Z,2.33
2023-05-27T17:35:30.775Z,2.20
2023-05-27T17:37:57.689Z,2.33
2023-05-27T17:40:24.430Z,2.30
2023-05-27T17:42:51.536Z,1.98
2023-05-27T17:45:18.318Z,2.20
2023-05-27T17:47:45.101Z,2.40
2023-05-27T17:50:11.907Z,2.25
2023-05-27T17:52:38.607Z,2.65
2023-05-27T17:55:06.033Z,2.10
2023-05-27T17:57:32.765Z,2.00
2023-05-27T17:59:59.531Z,2.42
2023-05-27T18:02:26.390Z,2.35
2023-05-27T18:04:53.231Z,2.20
2023-05-27T18:07:20.048Z,2.33
2023-05-27T18:09:46.995Z,2.10
2023-05-27T18:12:13.794Z,2.40
2023-05-27T18:14:40.558Z,2.08
2023-05-27T18:17:07.591Z,2.05
2023-05-27T18:19:34.586Z,2.35
2023-05-27T18:22:01.406Z,2.10
2023-05-27T18:24:28.246Z,2.10
2023-05-27T18:26:55.025Z,2.63
2023-05-27T18:29:21.953Z,2.38
2023-05-27T18:31:48.780Z,2.60
2023-05-27T18:34:16.736Z,2.50
2023-05-27T18:36:43.904Z,2.78
2023-05-27T18:39:10.663Z,2.10
2023-05-27T18:41:38.919Z,2.80
2023-05-27T18:44:05.822Z,2.58
2023-05-27T18:46:35.775Z,2.55
2023-05-27T18:49:02.709Z,2.80
2023-05-27T18:51:29.556Z,3.67
2023-05-27T18:53:56.379Z,3.40
2023-05-27T18:56:23.624Z,3.38
2023-05-27T18:58:50.772Z,3.20
2023-05-27T19:01:17.549Z,3.75
2023-05-27T19:03:44.394Z,3.90
2023-05-27T19:06:11.218Z,3.47
2023-05-27T19:08:38.057Z,3.50
2023-05-27T19:11:04.822Z,3.75
2023-05-27T19:13:31.574Z,3.88
2023-05-27T19:15:58.357Z,3.50
2023-05-27T19:18:25.349Z,3.40
2023-05-27T19:20:52.342Z,4.00
2023-05-27T19:23:19.304Z,4.20
2023-05-27T19:25:46.692Z,3.33
2023-05-27T19:28:13.461Z,3.42
2023-05-27T19:30:40.237Z,3.63
2023-05-27T19:33:07.069Z,4.05
2023-05-27T19:35:33.914Z,3.40
2023-05-27T19:38:00.748Z,3.30
2023-05-27T19:40:27.602Z,3.30
2023-05-27T19:42:54.355Z,3.22
2023-05-27T19:45:21.090Z,3.53
2023-05-27T19:47:47.886Z,3.72
2023-05-27T19:50:14.735Z,3.38
2023-05-27T19:52:41.452Z,3.50
2023-05-27T19:55:08.710Z,3.00
2023-05-27T19:57:35.748Z,3.38
2023-05-27T20:00:02.522Z,3.80
2023-05-27T20:02:32.020Z,3.40
2023-05-27T20:04:58.860Z,3.90
2023-05-27T20:07:25.624Z,3.58
2023-05-27T20:09:52.512Z,3.60
2023-05-27T20:12:40.182Z,3.70
2023-05-27T20:15:11.810Z,3.50
2023-05-27T20:17:39.018Z,3.50
2023-05-27T20:20:08.647Z,3.70
2023-05-27T20:22:36.274Z,3.53
2023-05-27T20:25:04.092Z,4.00
2023-05-27T20:27:31.070Z,4.30
2023-05-27T20:29:59.849Z,3.92
2023-05-27T20:32:26.666Z,4.38
2023-05-27T20:34:55.066Z,3.92
2023-05-27T20:37:21.957Z,3.80
2023-05-27T20:39:49.876Z,4.00
2023-05-27T20:42:17.178Z,3.58
2023-05-27T20:44:43.908Z,4.47
2023-05-27T20:47:10.812Z,4.30
2023-05-27T20:49:37.648Z,3.72
2023-05-27T20:52:04.789Z,3.97
2023-05-27T20:54:31.618Z,4.00
2023-05-27T20:56:58.437Z,4.15
2023-05-27T20:59:25.386Z,3.85
2023-05-27T21:01:52.214Z,3.47
2023-05-27T21:04:19.026Z,4.10
2023-05-27T21:06:45.850Z,3.83
2023-05-27T21:09:12.792Z,4.10
2023-05-27T21:11:39.714Z,3.92
2023-05-27T21:14:06.607Z,4.10
2023-05-27T21:16:33.930Z,4.10
2023-05-27T21:19:01.151Z,4.30
2023-05-27T21:21:29.217Z,4.00
2023-05-27T21:23:56.093Z,3.85
2023-05-27T21:26:23.425Z,3.90
2023-05-27T21:28:50.509Z,4.22
2023-05-27T21:31:19.004Z,3.80
2023-05-27T21:33:45.871Z,3.72
2023-05-27T21:36:12.969Z,4.07
2023-05-27T21:38:39.872Z,4.15
2023-05-27T21:41:06.674Z,4.57
2023-05-27T21:43:33.392Z,4.20
2023-05-27T21:46:00.258Z,3.97
2023-05-27T21:48:27.176Z,4.40
2023-05-27T21:50:54.118Z,4.13
2023-05-27T21:53:20.852Z,4.70
2023-05-27T21:55:47.568Z,4.70
2023-05-27T21:58:14.368Z,4.40
2023-05-27T22:00:41.310Z,4.32
2023-05-27T22:03:08.440Z,3.95
2023-05-27T22:05:35.513Z,4.70
2023-05-27T22:08:06.050Z,4.80
2023-05-27T22:10:33.892Z,4.70
2023-05-27T22:13:01.883Z,4.60
2023-05-27T22:15:29.293Z,4.22
2023-05-27T22:17:56.538Z,4.97
2023-05-27T22:20:23.472Z,4.90
2023-05-27T22:22:50.751Z,4.97
2023-05-27T22:25:17.720Z,4.22
2023-05-27T22:27:44.526Z,4.57
2023-05-27T22:30:11.737Z,4.60
2023-05-27T22:32:38.612Z,4.25
2023-05-27T22:35:06.597Z,4.90
2023-05-27T22:37:33.977Z,4.38
2023-05-27T22:40:00.832Z,4.45
2023-05-27T22:42:27.651Z,4.60
2023-05-27T22:44:54.464Z,4.47
2023-05-27T22:47:21.245Z,4.80
2023-05-27T22:49:48.033Z,4.70
2023-05-27T22:52:14.891Z,4.30
2023-05-27T22:54:41.639Z,4.60
2023-05-27T22:57:08.386Z,4.55
2023-05-27T22:59:35.270Z,4.03
2023-05-27T23:02:02.142Z,4.13
2023-05-27T23:04:28.987Z,4.10
2023-05-27T23:06:55.751Z,4.13
2023-05-27T23:09:22.535Z,4.13
2023-05-27T23:11:49.298Z,4.15
2023-05-27T23:14:16.072Z,3.90
2023-05-27T23:16:43.339Z,4.32
2023-05-27T23:19:11.521Z,3.95
2023-05-27T23:21:41.786Z,3.78
2023-05-27T23:24:08.863Z,3.97
2023-05-27T23:26:35.844Z,4.35
2023-05-27T23:29:02.777Z,4.65
2023-05-27T23:31:29.648Z,4.32
2023-05-27T23:33:56.498Z,3.83
2023-05-27T23:36:23.265Z,3.83
2023-05-27T23:38:50.750Z,4.00
2023-05-27T23:41:17.664Z,3.55
2023-05-27T23:43:44.433Z,4.00
2023-05-27T23:46:11.324Z,3.88
2023-05-27T23:48:38.158Z,3.78
2023-05-27T23:51:05.462Z,3.78
2023-05-27T23:53:32.232Z,4.10
2023-05-27T23:55:59.136Z,3.90
2023-05-27T23:58:25.991Z,3.58
